createdAt,value
2023-05-13T00:01:19.692Z,8.43
2023-05-13T00:03:47.158Z,8.75
2023-05-13T00:06:14.026Z,8.90
2023-05-13T00:08:40.569Z,8.45
2023-05-13T00:11:07.761Z,9.07
2023-05-13T00:13:34.356Z,8.23
2023-05-13T00:16:01.118Z,8.43
2023-05-13T00:18:27.719Z,9.40
2023-05-13T00:20:54.349Z,8.85
2023-05-13T00:23:20.895Z,9.45
2023-05-13T00:25:47.396Z,7.90
2023-05-13T00:28:15.097Z,9.13
2023-05-13T00:30:45.783Z,10.40
2023-05-13T00:33:12.879Z,10.63
2023-05-13T00:35:39.509Z,9.00
2023-05-13T00:38:06.946Z,9.07
2023-05-13T00:40:37.373Z,8.90
2023-05-13T00:43:03.952Z,10.32
2023-05-13T00:45:30.666Z,9.13
2023-05-13T00:47:58.169Z,9.90
2023-05-13T00:50:24.967Z,10.65
2023-05-13T00:52:51.887Z,11.35
2023-05-13T00:55:18.506Z,9.88
2023-05-13T00:57:45.023Z,10.80
2023-05-13T01:00:12.365Z,9.02
2023-05-13T01:03:01.483Z,10.77
2023-05-13T01:06:05.215Z,10.75
2023-05-13T01:08:51.622Z,10.45
2023-05-13T01:11:22.881Z,9.93
2023-05-13T01:13:57.132Z,10.05
2023-05-13T01:16:45.339Z,8.60
2023-05-13T01:19:36.914Z,8.65
2023-05-13T01:22:04.810Z,7.68
2023-05-13T01:24:31.377Z,6.93
2023-05-13T01:26:58.338Z,7.05
2023-05-13T01:29:25.016Z,7.28
2023-05-13T01:31:52.953Z,6.70
2023-05-13T01:34:22.474Z,6.88
2023-05-13T01:36:49.180Z,7.45
2023-05-13T01:39:17.984Z,7.90
2023-05-13T01:41:44.914Z,7.32
2023-05-13T01:44:11.489Z,7.22
2023-05-13T01:46:43.727Z,7.13
2023-05-13T01:49:10.311Z,8.30
2023-05-13T01:51:37.881Z,8.02
2023-05-13T01:54:06.260Z,8.85
2023-05-13T01:56:32.864Z,8.32
2023-05-13T01:58:59.373Z,6.95
2023-05-13T02:01:25.938Z,7.20
2023-05-13T02:03:52.559Z,7.82
2023-05-13T02:06:19.608Z,7.63
2023-05-13T02:08:46.126Z,8.05
2023-05-13T02:11:12.694Z,8.00
2023-05-13T02:13:39.224Z,7.07
2023-05-13T02:16:05.899Z,7.25
2023-05-13T02:18:32.448Z,6.80
2023-05-13T02:20:59.028Z,7.32
2023-05-13T02:23:25.687Z,7.00
2023-05-13T02:25:52.261Z,6.70
2023-05-13T02:28:19.078Z,8.00
2023-05-13T02:30:45.615Z,7.10
2023-05-13T02:33:12.810Z,7.45
2023-05-13T02:35:39.485Z,6.78
2023-05-13T02:38:06.019Z,6.50
2023-05-13T02:40:32.535Z,6.25
2023-05-13T02:42:59.082Z,5.90
2023-05-13T02:45:25.685Z,7.07
2023-05-13T02:47:52.360Z,7.18
2023-05-13T02:50:19.232Z,7.00
2023-05-13T02:52:45.937Z,7.03
2023-05-13T02:55:12.604Z,5.82
2023-05-13T02:57:39.254Z,7.30
2023-05-13T03:00:06.731Z,6.07
2023-05-13T03:02:35.085Z,5.82
2023-05-13T03:05:01.741Z,6.00
2023-05-13T03:07:28.251Z,6.78
2023-05-13T03:10:00.863Z,6.38
2023-05-13T03:12:27.445Z,5.60
2023-05-13T03:14:55.550Z,4.72
2023-05-13T03:17:25.628Z,5.90
2023-05-13T03:19:52.211Z,5.72
2023-05-13T03:22:18.828Z,5.78
2023-05-13T03:24:50.871Z,6.53
2023-05-13T03:27:23.432Z,5.88
2023-05-13T03:29:50.009Z,6.68
2023-05-13T03:32:16.549Z,6.05
2023-05-13T03:34:43.094Z,5.95
2023-05-13T03:37:10.012Z,5.57
2023-05-13T03:39:36.559Z,6.30
2023-05-13T03:42:03.181Z,6.57
2023-05-13T03:44:29.766Z,6.60
2023-05-13T03:46:56.401Z,6.32
2023-05-13T03:49:23.233Z,5.80
2023-05-13T03:51:49.756Z,7.00
2023-05-13T03:54:16.353Z,5.65
2023-05-13T03:56:42.871Z,5.30
2023-05-13T03:59:09.414Z,5.53
2023-05-13T04:01:36.306Z,5.43
2023-05-13T04:04:02.836Z,6.05
2023-05-13T04:06:29.360Z,5.85
2023-05-13T04:08:55.898Z,6.57
2023-05-13T04:11:22.568Z,6.45
2023-05-13T04:13:49.120Z,6.22
2023-05-13T04:16:15.743Z,7.20
2023-05-13T04:18:42.427Z,6.85
2023-05-13T04:21:10.131Z,6.55
2023-05-13T04:23:36.753Z,5.93
2023-05-13T04:26:03.356Z,6.07
2023-05-13T04:28:29.928Z,6.30
2023-05-13T04:30:56.501Z,5.60
2023-05-13T04:33:23.071Z,5.28
2023-05-13T04:35:49.591Z,5.78
2023-05-13T04:38:16.161Z,5.88
2023-05-13T04:40:44.127Z,5.47
2023-05-13T04:43:13.633Z,5.38
2023-05-13T04:45:40.267Z,5.00
2023-05-13T04:48:07.131Z,5.45
2023-05-13T04:50:33.752Z,4.85
2023-05-13T04:53:00.860Z,5.22
2023-05-13T04:55:27.933Z,6.05
2023-05-13T04:57:54.662Z,5.15
2023-05-13T05:00:21.325Z,5.70
2023-05-13T05:02:48.284Z,5.45
2023-05-13T05:05:16.766Z,5.55
2023-05-13T05:07:44.859Z,5.65
2023-05-13T05:10:11.384Z,5.70
2023-05-13T05:12:38.235Z,5.40
2023-05-13T05:15:05.898Z,5.18
2023-05-13T05:17:33.869Z,4.63
2023-05-13T05:20:00.787Z,4.22
2023-05-13T05:22:27.443Z,4.90
2023-05-13T05:24:54.038Z,4.60
2023-05-13T05:27:20.680Z,5.47
2023-05-13T05:29:47.225Z,5.35
2023-05-13T05:32:13.964Z,5.18
2023-05-13T05:34:40.985Z,5.30
2023-05-13T05:37:07.562Z,4.97
2023-05-13T05:39:35.205Z,4.50
2023-05-13T05:42:01.946Z,4.93
2023-05-13T05:44:28.453Z,4.00
2023-05-13T05:46:55.331Z,4.18
2023-05-13T05:49:21.928Z,4.75
2023-05-13T05:51:48.538Z,5.00
2023-05-13T05:54:15.116Z,4.47
2023-05-13T05:56:41.627Z,4.38
2023-05-13T05:59:08.142Z,4.70
2023-05-13T06:01:36.757Z,3.60
2023-05-13T06:04:04.331Z,4.80
2023-05-13T06:06:32.372Z,4.15
2023-05-13T06:08:58.968Z,4.97
2023-05-13T06:11:25.641Z,4.75
2023-05-13T06:13:53.246Z,3.42
2023-05-13T06:16:19.843Z,4.50
2023-05-13T06:18:46.387Z,6.70
2023-05-13T06:21:12.924Z,6.63
2023-05-13T06:23:39.956Z,5.68
2023-05-13T06:26:06.658Z,4.90
2023-05-13T06:28:33.159Z,5.40
2023-05-13T06:30:59.688Z,5.72
2023-05-13T06:33:26.356Z,4.00
2023-05-13T06:35:53.378Z,4.82
2023-05-13T06:38:19.989Z,7.85
2023-05-13T06:40:46.545Z,10.60
2023-05-13T06:43:14.687Z,5.78
2023-05-13T06:45:41.436Z,6.72
2023-05-13T06:48:08.277Z,8.23
2023-05-13T06:50:34.905Z,7.15
2023-05-13T06:53:01.618Z,9.52
2023-05-13T06:55:28.169Z,8.27
2023-05-13T06:57:54.723Z,7.97
2023-05-13T07:00:21.713Z,4.57
2023-05-13T07:02:48.390Z,4.57
2023-05-13T07:05:14.925Z,4.25
2023-05-13T07:07:43.275Z,6.55
2023-05-13T07:10:10.328Z,4.85
2023-05-13T07:12:37.020Z,6.00
2023-05-13T07:15:03.868Z,5.38
2023-05-13T07:17:31.393Z,4.10
2023-05-13T07:19:58.235Z,4.55
2023-05-13T07:22:25.064Z,4.35
2023-05-13T07:24:51.613Z,3.47
2023-05-13T07:27:21.070Z,4.10
2023-05-13T07:29:50.690Z,4.53
2023-05-13T07:32:17.305Z,3.97
2023-05-13T07:34:44.382Z,4.75
2023-05-13T07:37:11.161Z,4.75
2023-05-13T07:39:37.746Z,3.83
2023-05-13T07:42:04.377Z,3.90
2023-05-13T07:44:31.053Z,8.40
2023-05-13T07:46:57.614Z,5.97
2023-05-13T07:49:24.177Z,3.75
2023-05-13T07:51:50.754Z,3.33
2023-05-13T07:54:18.370Z,4.55
2023-05-13T07:56:46.588Z,5.78
2023-05-13T07:59:13.228Z,3.88
2023-05-13T08:01:39.785Z,3.67
2023-05-13T08:04:06.593Z,3.83
2023-05-13T08:06:33.202Z,3.92
2023-05-13T08:08:59.994Z,5.25
2023-05-13T08:11:26.900Z,2.83
2023-05-13T08:13:53.461Z,2.90
2023-05-13T08:16:20.251Z,3.00
2023-05-13T08:18:46.851Z,6.10
2023-05-13T08:21:13.396Z,3.20
2023-05-13T08:23:45.422Z,3.28
2023-05-13T08:26:13.045Z,2.80
2023-05-13T08:28:39.668Z,3.05
2023-05-13T08:31:06.450Z,3.17
2023-05-13T08:33:33.241Z,3.05
2023-05-13T08:36:00.641Z,4.20
2023-05-13T08:38:27.233Z,2.38
2023-05-13T08:40:54.080Z,3.70
2023-05-13T08:43:23.784Z,2.40
2023-05-13T08:45:52.276Z,2.55
2023-05-13T08:48:20.327Z,2.97
2023-05-13T08:50:47.910Z,3.10
2023-05-13T08:53:18.841Z,3.00
2023-05-13T08:55:45.695Z,2.80
2023-05-13T08:58:12.446Z,3.20
2023-05-13T09:00:39.798Z,2.50
2023-05-13T09:03:07.039Z,3.08
2023-05-13T09:05:35.644Z,3.25
2023-05-13T09:08:10.671Z,3.25
2023-05-13T09:10:37.813Z,2.58
2023-05-13T09:13:05.968Z,2.83
2023-05-13T09:15:33.114Z,2.92
2023-05-13T09:18:07.452Z,2.40
2023-05-13T09:20:35.283Z,2.90
2023-05-13T09:23:07.122Z,2.97
2023-05-13T09:25:34.197Z,3.10
2023-05-13T09:28:03.394Z,3.63
2023-05-13T09:30:40.193Z,2.83
2023-05-13T09:33:13.885Z,2.55
2023-05-13T09:35:42.469Z,2.63
2023-05-13T09:38:18.517Z,3.22
2023-05-13T09:40:51.555Z,2.53
2023-05-13T09:43:22.721Z,2.90
2023-05-13T09:45:56.876Z,2.80
2023-05-13T09:48:28.752Z,2.60
2023-05-13T09:50:57.874Z,2.50
2023-05-13T09:53:25.672Z,3.10
2023-05-13T09:55:54.448Z,3.20
2023-05-13T09:58:22.444Z,2.60
2023-05-13T10:00:49.242Z,2.80
2023-05-13T10:03:19.259Z,2.85
2023-05-13T10:05:46.500Z,3.15
2023-05-13T10:08:15.170Z,3.60
2023-05-13T10:10:45.476Z,5.00
2023-05-13T10:13:18.176Z,3.28
2023-05-13T10:15:53.010Z,3.38
2023-05-13T10:18:21.368Z,3.15
2023-05-13T10:20:53.225Z,2.78
2023-05-13T10:23:21.497Z,3.88
2023-05-13T10:25:48.409Z,4.95
2023-05-13T10:28:16.671Z,6.05
2023-05-13T10:30:44.417Z,4.28
2023-05-13T10:33:11.452Z,3.47
2023-05-13T10:35:42.775Z,2.92
2023-05-13T10:38:17.026Z,3.10
2023-05-13T10:41:05.188Z,2.72
2023-05-13T10:43:32.885Z,2.67
2023-05-13T10:46:04.977Z,2.72
2023-05-13T10:48:54.963Z,2.70
2023-05-13T10:51:24.670Z,2.83
2023-05-13T10:53:56.153Z,3.15
2023-05-13T10:56:27.012Z,2.80
2023-05-13T10:59:02.612Z,3.28
2023-05-13T11:01:45.967Z,2.47
2023-05-13T11:04:17.504Z,2.28
2023-05-13T11:06:48.371Z,2.30
2023-05-13T11:09:21.027Z,2.70
2023-05-13T11:11:49.212Z,1.58
2023-05-13T11:14:17.702Z,2.60
2023-05-13T11:17:02.724Z,2.55
2023-05-13T11:19:32.946Z,2.40
2023-05-13T11:22:08.756Z,2.75
2023-05-13T11:24:36.488Z,6.28
2023-05-13T11:27:17.475Z,4.78
2023-05-13T11:29:57.887Z,2.53
2023-05-13T11:32:53.326Z,2.47
2023-05-13T11:35:21.468Z,2.42
2023-05-13T11:37:49.263Z,2.40
2023-05-13T11:40:23.161Z,2.33
2023-05-13T11:42:50.560Z,2.35
2023-05-13T11:45:17.989Z,2.40
2023-05-13T11:47:44.935Z,2.50
2023-05-13T11:50:23.005Z,2.75
2023-05-13T11:52:54.808Z,2.30
2023-05-13T11:55:39.511Z,2.50
2023-05-13T11:58:06.093Z,2.35
2023-05-13T12:00:34.318Z,2.25
2023-05-13T12:03:13.296Z,1.95
2023-05-13T12:05:40.141Z,2.20
2023-05-13T12:08:10.614Z,1.75
2023-05-13T12:10:43.324Z,2.20
2023-05-13T12:13:10.038Z,2.20
2023-05-13T12:15:36.775Z,2.05
2023-05-13T12:18:03.754Z,2.60
2023-05-13T12:20:30.342Z,2.65
2023-05-13T12:22:57.111Z,1.70
2023-05-13T12:25:47.876Z,1.90
2023-05-13T12:28:19.952Z,1.98
2023-05-13T12:30:57.105Z,1.95
2023-05-13T12:33:29.048Z,1.98
2023-05-13T12:36:25.904Z,1.98
2023-05-13T12:39:04.093Z,1.80
2023-05-13T12:41:32.823Z,2.75
2023-05-13T12:44:01.020Z,2.03
2023-05-13T12:46:28.617Z,24.20
2023-05-13T12:49:00.187Z,3.90
2023-05-13T12:51:27.526Z,2.08
2023-05-13T12:53:54.618Z,1.27
2023-05-13T12:56:25.396Z,2.00
2023-05-13T12:58:54.162Z,2.42
2023-05-13T13:01:21.846Z,2.45
2023-05-13T13:03:48.510Z,5.90
2023-05-13T13:06:15.380Z,2.40
2023-05-13T13:08:42.373Z,1.92
2023-05-13T13:11:09.290Z,2.83
2023-05-13T13:13:37.360Z,1.90
2023-05-13T13:16:06.210Z,1.70
2023-05-13T13:18:32.935Z,1.77
2023-05-13T13:20:59.557Z,2.00
2023-05-13T13:23:26.141Z,2.00
2023-05-13T13:25:52.684Z,2.22
2023-05-13T13:28:19.260Z,2.35
2023-05-13T13:30:47.280Z,2.05
2023-05-13T13:33:15.466Z,1.92
2023-05-13T13:35:47.011Z,2.20
2023-05-13T13:38:14.034Z,1.92
2023-05-13T13:40:40.945Z,2.35
2023-05-13T13:43:08.050Z,2.08
2023-05-13T13:45:35.549Z,2.30
2023-05-13T13:48:02.769Z,2.13
2023-05-13T13:50:29.454Z,2.17
2023-05-13T13:52:56.001Z,2.30
2023-05-13T13:55:23.942Z,1.60
2023-05-13T13:57:51.045Z,2.20
2023-05-13T14:00:18.101Z,2.38
2023-05-13T14:02:44.697Z,2.20
2023-05-13T14:05:12.914Z,2.40
2023-05-13T14:07:40.112Z,1.92
2023-05-13T14:10:07.614Z,2.10
2023-05-13T14:12:35.875Z,2.15
2023-05-13T14:15:02.849Z,2.65
2023-05-13T14:17:29.551Z,2.40
2023-05-13T14:19:56.142Z,2.30
2023-05-13T14:22:24.150Z,2.08
2023-05-13T14:24:52.364Z,2.50
2023-05-13T14:27:19.846Z,2.42
2023-05-13T14:29:47.740Z,2.78
2023-05-13T14:32:14.412Z,2.30
2023-05-13T14:34:41.057Z,2.65
2023-05-13T14:37:07.685Z,2.33
2023-05-13T14:39:34.300Z,2.10
2023-05-13T14:42:01.179Z,2.75
2023-05-13T14:44:27.725Z,2.70
2023-05-13T14:46:54.369Z,2.50
2023-05-13T14:49:20.906Z,2.35
2023-05-13T14:51:47.467Z,2.03
2023-05-13T14:54:14.238Z,1.98
2023-05-13T14:56:41.537Z,2.28
2023-05-13T14:59:08.440Z,2.30
2023-05-13T15:01:35.190Z,2.10
2023-05-13T15:04:02.156Z,2.50
2023-05-13T15:06:29.240Z,3.20
2023-05-13T15:08:56.423Z,2.30
2023-05-13T15:11:23.377Z,3.42
2023-05-13T15:13:49.921Z,2.13
2023-05-13T15:16:16.472Z,2.55
2023-05-13T15:18:43.123Z,2.33
2023-05-13T15:21:09.700Z,2.50
2023-05-13T15:23:36.467Z,2.53
2023-05-13T15:26:03.101Z,2.50
2023-05-13T15:28:29.679Z,3.53
2023-05-13T15:30:56.364Z,2.65
2023-05-13T15:33:22.948Z,2.65
2023-05-13T15:35:49.548Z,2.50
2023-05-13T15:38:16.906Z,4.53
2023-05-13T15:40:43.600Z,4.75
2023-05-13T15:43:10.170Z,2.70
2023-05-13T15:45:36.773Z,2.55
2023-05-13T15:48:03.471Z,2.70
2023-05-13T15:50:30.078Z,2.50
2023-05-13T15:52:56.648Z,2.20
2023-05-13T15:55:23.230Z,2.60
2023-05-13T15:57:50.602Z,4.40
2023-05-13T16:00:18.043Z,2.90
2023-05-13T16:02:44.752Z,2.60
2023-05-13T16:05:12.069Z,2.17
2023-05-13T16:07:38.619Z,2.50
2023-05-13T16:10:05.628Z,2.55
2023-05-13T16:12:32.206Z,2.00
2023-05-13T16:14:58.867Z,2.30
2023-05-13T16:17:25.547Z,1.70
2023-05-13T16:19:52.293Z,2.30
2023-05-13T16:22:36.109Z,2.40
2023-05-13T16:25:05.408Z,2.83
2023-05-13T16:27:33.155Z,2.30
2023-05-13T16:30:00.906Z,2.85
2023-05-13T16:32:28.684Z,8.07
2023-05-13T16:34:55.991Z,3.30
2023-05-13T16:37:22.548Z,2.80
2023-05-13T16:39:49.113Z,2.83
2023-05-13T16:42:15.720Z,3.60
2023-05-13T16:44:42.301Z,2.90
2023-05-13T16:47:09.189Z,2.88
2023-05-13T16:49:36.805Z,3.55
2023-05-13T16:52:04.261Z,2.92
2023-05-13T16:54:31.150Z,3.30
2023-05-13T16:56:58.212Z,3.40
2023-05-13T16:59:26.733Z,3.10
2023-05-13T17:01:53.389Z,3.55
2023-05-13T17:04:21.261Z,3.65
2023-05-13T17:06:47.855Z,4.20
2023-05-13T17:09:14.472Z,3.28
2023-05-13T17:11:41.169Z,3.75
2023-05-13T17:14:07.804Z,4.13
2023-05-13T17:16:34.542Z,4.10
2023-05-13T17:19:01.152Z,4.20
2023-05-13T17:21:27.720Z,3.63
2023-05-13T17:23:54.326Z,3.95
2023-05-13T17:26:22.021Z,3.50
2023-05-13T17:28:49.675Z,4.43
2023-05-13T17:31:16.594Z,3.78
2023-05-13T17:33:43.426Z,3.17
2023-05-13T17:36:10.881Z,3.97
2023-05-13T17:38:37.944Z,3.95
2023-05-13T17:41:05.247Z,4.05
2023-05-13T17:43:31.892Z,3.95
2023-05-13T17:45:58.650Z,4.07
2023-05-13T17:48:26.585Z,3.97
2023-05-13T17:50:53.203Z,4.00
2023-05-13T17:53:20.601Z,4.30
2023-05-13T17:55:48.638Z,4.68
2023-05-13T17:58:16.345Z,3.83
2023-05-13T18:00:43.126Z,4.45
2023-05-13T18:03:09.755Z,3.85
2023-05-13T18:05:36.444Z,3.95
2023-05-13T18:08:03.045Z,4.30
2023-05-13T18:10:29.606Z,3.97
2023-05-13T18:12:56.167Z,3.85
2023-05-13T18:15:22.743Z,4.47
2023-05-13T18:17:49.949Z,3.70
2023-05-13T18:20:16.556Z,4.18
2023-05-13T18:22:43.120Z,4.10
2023-05-13T18:25:10.117Z,3.33
2023-05-13T18:27:36.623Z,3.47
2023-05-13T18:30:03.268Z,3.70
2023-05-13T18:32:29.831Z,3.72
2023-05-13T18:34:56.369Z,4.15
2023-05-13T18:37:22.902Z,4.50
2023-05-13T18:39:49.501Z,4.13
2023-05-13T18:42:16.037Z,3.97
2023-05-13T18:44:42.616Z,5.60
2023-05-13T18:47:09.192Z,3.85
2023-05-13T18:49:35.917Z,4.40
2023-05-13T18:52:02.532Z,3.45
2023-05-13T18:54:29.336Z,4.60
2023-05-13T18:56:56.277Z,7.78
2023-05-13T18:59:23.092Z,4.40
2023-05-13T19:01:49.895Z,4.68
2023-05-13T19:04:16.714Z,4.20
2023-05-13T19:06:43.389Z,4.97
2023-05-13T19:09:10.081Z,3.92
2023-05-13T19:11:36.662Z,4.63
2023-05-13T19:14:03.236Z,3.75
2023-05-13T19:16:29.975Z,3.78
2023-05-13T19:18:56.680Z,4.60
2023-05-13T19:21:28.637Z,4.47
2023-05-13T19:23:55.132Z,3.80
2023-05-13T19:26:22.280Z,4.57
2023-05-13T19:28:49.073Z,4.15
2023-05-13T19:31:15.616Z,4.13
2023-05-13T19:33:43.412Z,4.88
2023-05-13T19:36:11.226Z,5.65
2023-05-13T19:38:37.817Z,5.47
2023-05-13T19:41:04.344Z,6.07
2023-05-13T19:43:30.878Z,6.07
2023-05-13T19:45:57.685Z,5.35
2023-05-13T19:48:24.264Z,5.70
2023-05-13T19:50:53.452Z,5.97
2023-05-13T19:53:21.642Z,5.22
2023-05-13T19:55:48.230Z,6.30
2023-05-13T19:58:15.135Z,5.03
2023-05-13T20:00:43.927Z,5.15
2023-05-13T20:03:11.132Z,5.97
2023-05-13T20:05:40.825Z,6.38
2023-05-13T20:08:07.428Z,6.25
2023-05-13T20:10:36.941Z,6.50
2023-05-13T20:13:04.756Z,6.80
2023-05-13T20:15:32.118Z,7.28
2023-05-13T20:17:58.940Z,7.15
2023-05-13T20:20:25.780Z,6.78
2023-05-13T20:22:52.561Z,7.35
2023-05-13T20:25:19.388Z,10.43
2023-05-13T20:27:45.908Z,6.88
2023-05-13T20:30:13.202Z,7.20
2023-05-13T20:32:39.866Z,7.35
2023-05-13T20:35:07.553Z,7.45
2023-05-13T20:37:34.330Z,6.45
2023-05-13T20:40:01.004Z,7.47
2023-05-13T20:42:27.502Z,7.13
2023-05-13T20:44:54.047Z,8.15
2023-05-13T20:47:20.910Z,7.78
2023-05-13T20:49:47.507Z,6.70
2023-05-13T20:52:14.118Z,6.65
2023-05-13T20:54:40.733Z,7.72
2023-05-13T20:57:07.295Z,7.10
2023-05-13T20:59:33.801Z,8.60
2023-05-13T21:02:00.451Z,8.10
2023-05-13T21:04:27.192Z,8.98
2023-05-13T21:06:53.782Z,7.63
2023-05-13T21:09:20.375Z,8.43
2023-05-13T21:11:46.945Z,8.40
2023-05-13T21:14:13.546Z,7.78
2023-05-13T21:16:40.112Z,7.68
2023-05-13T21:19:06.737Z,7.32
2023-05-13T21:21:33.297Z,7.90
2023-05-13T21:23:59.836Z,7.88
2023-05-13T21:26:26.481Z,7.47
2023-05-13T21:28:53.005Z,8.65
2023-05-13T21:31:19.614Z,8.55
2023-05-13T21:33:46.172Z,8.30
2023-05-13T21:36:12.705Z,9.10
2023-05-13T21:38:39.333Z,8.82
2023-05-13T21:41:05.858Z,9.48
2023-05-13T21:43:32.377Z,9.10
2023-05-13T21:45:58.992Z,9.15
2023-05-13T21:48:25.892Z,8.52
2023-05-13T21:50:52.807Z,8.88
2023-05-13T21:53:19.553Z,9.23
2023-05-13T21:55:46.139Z,8.85
2023-05-13T21:58:12.923Z,11.38
2023-05-13T22:00:39.470Z,11.32
2023-05-13T22:03:06.257Z,10.55
2023-05-13T22:05:32.941Z,11.52
2023-05-13T22:08:01.807Z,9.63
2023-05-13T22:10:28.533Z,11.27
2023-05-13T22:12:55.054Z,11.50
2023-05-13T22:15:21.588Z,11.32
2023-05-13T22:17:50.648Z,10.90
2023-05-13T22:20:17.470Z,9.10
2023-05-13T22:22:43.986Z,11.18
2023-05-13T22:25:10.495Z,10.65
2023-05-13T22:27:37.179Z,10.65
2023-05-13T22:30:04.088Z,10.30
2023-05-13T22:32:30.709Z,10.63
2023-05-13T22:34:57.541Z,10.73
2023-05-13T22:37:24.067Z,11.13
2023-05-13T22:39:51.026Z,10.23
2023-05-13T22:42:17.628Z,9.70
2023-05-13T22:44:44.150Z,9.80
2023-05-13T22:47:10.889Z,10.45
2023-05-13T22:49:37.420Z,10.32
2023-05-13T22:52:06.489Z,10.27
2023-05-13T22:54:32.981Z,10.32
2023-05-13T22:56:59.510Z,11.35
2023-05-13T22:59:26.815Z,12.40
2023-05-13T23:01:53.400Z,11.55
2023-05-13T23:04:20.012Z,11.70
2023-05-13T23:06:46.550Z,12.30
2023-05-13T23:09:13.048Z,11.35
2023-05-13T23:11:39.570Z,11.02
2023-05-13T23:14:06.151Z,10.68
2023-05-13T23:16:32.686Z,11.27
2023-05-13T23:18:59.338Z,11.55
2023-05-13T23:21:26.097Z,11.52
2023-05-13T23:23:52.749Z,10.80
2023-05-13T23:26:19.264Z,10.07
2023-05-13T23:28:46.948Z,9.80
2023-05-13T23:31:13.618Z,10.18
2023-05-13T23:33:40.177Z,9.98
2023-05-13T23:36:06.880Z,10.15
2023-05-13T23:38:33.567Z,10.35
2023-05-13T23:41:00.123Z,10.50
2023-05-13T23:43:26.725Z,10.88
2023-05-13T23:45:53.323Z,10.48
2023-05-13T23:48:19.880Z,9.85
2023-05-13T23:50:46.438Z,10.68
2023-05-13T23:53:12.987Z,10.20
2023-05-13T23:55:39.544Z,10.18
2023-05-13T23:58:06.185Z,8.75
